.
WxDataArchive / Data Records for 2014-02-14
2014-02-13 February 2014 2014-02-15

Data Records for Friday, 14 February 2014

Time	Temp	Chill	HIndex	Humid	Dewpt	 Wind 	HiWind	WindDir	Rain 	Barom 
-----	----	-----	------	-----	-----	------	------	-------	-----	----- 
00:00	29.3	29.3	29.3	65	19.0	0	2	270	0.00	29.526 
00:05	29.4	29.4	29.4	65	19.1	0	3	270	0.00	29.526 
00:10	29.5	29.5	29.5	66	19.6	1	4	270	0.00	29.526 
00:15	29.7	29.7	29.7	66	19.8	0	2	270	0.00	29.518 
00:20	29.8	29.8	29.8	67	20.2	1	5	248	0.00	29.518 
00:25	30.0	30.0	30.0	67	20.4	1	5	248	0.00	29.518 
00:30	30.1	30.1	30.1	68	20.8	0	3	225	0.00	29.514 
00:35	30.3	30.3	30.3	68	21.0	0	2	225	0.00	29.514 
00:40	30.4	30.4	30.4	68	21.1	1	3	225	0.00	29.514 
00:45	30.6	30.6	30.6	69	21.7	1	3	248	0.00	29.511 
00:50	30.7	30.7	30.7	69	21.8	1	4	248	0.00	29.511 
00:55	30.9	30.9	30.9	69	21.9	1	5	248	0.00	29.511 
01:00	31.0	31.0	31.0	70	22.4	1	4	248	0.00	29.502 
01:05	31.0	31.0	31.0	70	22.4	1	5	248	0.00	29.502 
01:10	31.2	31.2	31.2	72	23.2	2	5	248	0.00	29.502 
01:15	31.3	31.3	31.3	72	23.3	1	4	248	0.00	29.497 
01:20	31.5	31.5	31.5	73	23.9	2	6	248	0.00	29.497 
01:25	31.6	31.6	31.6	73	24.0	3	7	248	0.00	29.497 
01:30	31.8	27.8	31.8	73	24.1	4	14	270	0.00	29.493 
01:35	31.8	27.8	31.8	73	24.1	4	14	270	0.00	29.493 
01:40	31.6	31.6	31.6	73	24.0	3	7	270	0.00	29.493 
01:45	31.3	26.3	31.3	72	23.3	5	12	270	0.00	29.487 
01:50	30.9	25.8	30.9	72	23.0	5	9	270	0.00	29.487 
01:55	30.3	24.2	30.3	71	22.0	6	12	270	0.00	29.487 
02:00	29.0	22.7	29.0	69	20.1	6	13	270	0.00	29.508 
02:05	27.6	21.9	27.6	69	18.8	5	12	270	0.00	29.508 
02:10	26.6	19.8	26.6	70	18.2	6	13	270	0.00	29.508 
02:15	26.3	21.5	26.3	71	18.2	4	10	270	0.00	29.516 
02:20	26.0	21.1	26.0	72	18.2	4	10	270	0.00	29.516 
02:25	25.8	19.8	25.8	72	18.0	5	16	270	0.00	29.516 
02:30	25.7	19.7	25.7	72	17.9	5	9	270	0.00	29.527 
02:35	25.6	19.6	25.6	73	18.2	5	9	270	0.00	29.527 
02:40	25.4	20.5	25.4	73	18.0	4	8	270	0.00	29.527 
02:45	25.4	20.5	25.4	73	18.0	4	7	270	0.00	29.532 
02:50	25.4	20.5	25.4	73	18.0	4	7	270	0.00	29.532 
02:55	25.4	19.3	25.4	73	18.0	5	10	270	0.00	29.532 
03:00	25.3	25.3	25.3	73	17.9	2	5	270	0.00	29.546 
03:05	25.3	25.3	25.3	73	17.9	3	7	270	0.00	29.546 
03:10	25.1	25.1	25.1	73	17.7	3	7	248	0.00	29.546 
03:15	25.1	25.1	25.1	74	18.0	3	5	270	0.00	29.548 
03:20	25.1	25.1	25.1	74	18.0	3	6	270	0.00	29.548 
03:25	25.1	25.1	25.1	74	18.0	3	11	270	0.00	29.548 
03:30	25.1	20.1	25.1	74	18.0	4	9	270	0.00	29.557 
03:35	25.0	25.0	25.0	74	17.9	2	6	270	0.00	29.557 
03:40	25.0	25.0	25.0	74	17.9	3	6	270	0.00	29.557 
03:45	24.8	24.8	24.8	74	17.7	3	5	270	0.00	29.559 
03:50	24.8	24.8	24.8	74	17.7	3	7	270	0.00	29.559 
03:55	24.7	24.7	24.7	75	17.9	3	10	270	0.00	29.559 
04:00	24.7	24.7	24.7	75	17.9	3	7	270	0.00	29.561 
04:05	24.7	24.7	24.7	75	17.9	3	6	270	0.00	29.561 
04:10	24.5	24.5	24.5	75	17.7	2	5	248	0.00	29.561 
04:15	24.2	24.2	24.2	75	17.4	2	6	270	0.00	29.570 
04:20	24.1	24.1	24.1	76	17.7	2	5	270	0.00	29.570 
04:25	23.9	23.9	23.9	76	17.5	2	6	270	0.00	29.570 
04:30	23.8	23.8	23.8	73	16.4	3	6	270	0.00	29.579 
04:35	23.6	23.6	23.6	76	17.2	2	5	248	0.00	29.579 
04:40	23.6	23.6	23.6	77	17.5	3	5	248	0.00	29.579 
04:45	23.5	23.5	23.5	77	17.4	2	5	270	0.00	29.586 
04:50	23.5	23.5	23.5	77	17.4	2	6	248	0.00	29.586 
04:55	23.3	23.3	23.3	77	17.2	3	5	248	0.00	29.586 
05:00	23.2	23.2	23.2	77	17.1	2	5	270	0.00	29.595 
05:05	23.2	23.2	23.2	77	17.1	3	7	270	0.00	29.595 
05:10	23.0	23.0	23.0	77	16.9	2	5	270	0.00	29.595 
05:15	23.0	23.0	23.0	77	16.9	2	4	248	0.00	29.600 
05:20	23.0	23.0	23.0	77	16.9	3	6	270	0.00	29.600 
05:25	22.9	22.9	22.9	78	17.1	1	3	225	0.00	29.600 
05:30	22.9	22.9	22.9	78	17.1	2	4	225	0.00	29.606 
05:35	22.7	22.7	22.7	77	16.6	2	5	248	0.00	29.606 
05:40	22.7	22.7	22.7	78	16.9	2	4	248	0.00	29.606 
05:45	22.5	22.5	22.5	78	16.7	1	4	248	0.00	29.615 
05:50	22.4	22.4	22.4	78	16.6	2	5	270	0.00	29.615 
05:55	22.2	22.2	22.2	78	16.4	2	4	248	0.00	29.615 
06:00	22.1	22.1	22.1	78	16.3	2	4	248	0.00	29.623 
06:05	21.9	21.9	21.9	78	16.1	3	6	270	0.00	29.623 
06:10	21.8	21.8	21.8	78	16.0	2	4	248	0.00	29.623 
06:15	21.6	21.6	21.6	78	15.8	2	5	248	0.00	29.621 
06:20	21.4	21.4	21.4	78	15.6	1	6	248	0.00	29.621 
06:25	21.3	21.3	21.3	78	15.5	2	5	248	0.00	29.621 
06:30	21.1	21.1	21.1	78	15.3	2	7	248	0.00	29.632 
06:35	21.0	21.0	21.0	78	15.2	2	4	248	0.00	29.632 
06:40	20.8	20.8	20.8	78	15.0	1	4	248	0.00	29.632 
06:45	20.8	20.8	20.8	78	15.0	1	3	248	0.00	29.643 
06:50	20.6	20.6	20.6	78	14.8	1	4	248	0.00	29.643 
06:55	20.5	20.5	20.5	78	14.8	2	5	270	0.00	29.643 
07:00	20.5	20.5	20.5	78	14.8	1	3	270	0.00	29.650 
07:05	20.3	20.3	20.3	79	14.8	1	3	248	0.00	29.650 
07:10	20.3	20.3	20.3	79	14.8	1	4	248	0.00	29.650 
07:15	20.3	20.3	20.3	79	14.8	1	4	270	0.00	29.650 
07:20	20.2	20.2	20.2	79	14.8	1	3	270	0.00	29.650 
07:25	20.2	20.2	20.2	79	14.8	1	3	270	0.00	29.650 
07:30	20.2	20.2	20.2	79	14.8	1	3	292	0.00	29.655 
07:35	20.2	20.2	20.2	79	14.8	1	3	248	0.00	29.655 
07:40	20.2	20.2	20.2	79	14.8	1	3	248	0.00	29.655 
07:45	20.2	20.2	20.2	79	14.8	0	2	248	0.00	29.654 
07:50	20.2	20.2	20.2	79	14.8	1	3	248	0.00	29.654 
07:55	20.2	20.2	20.2	79	14.8	1	3	248	0.00	29.654 
08:00	20.2	20.2	20.2	79	14.8	0	5	248	0.00	29.659 
08:05	20.2	20.2	20.2	79	14.8	0	3	248	0.00	29.659 
08:10	20.2	20.2	20.2	79	14.8	1	3	225	0.00	29.659 
08:15	20.2	20.2	20.2	79	14.8	1	4	248	0.00	29.672 
08:20	20.2	20.2	20.2	79	14.8	1	3	248	0.00	29.672 
08:25	20.2	20.2	20.2	79	14.8	0	2	248	0.00	29.672 
08:30	20.3	20.3	20.3	79	14.8	0	2	248	0.00	29.674 
08:35	20.3	20.3	20.3	79	14.8	0	2	248	0.00	29.674 
08:40	20.5	20.5	20.5	79	15.0	0	3	248	0.00	29.674 
08:45	20.5	20.5	20.5	78	14.8	1	5	248	0.00	29.686 
08:50	20.5	20.5	20.5	78	14.8	2	4	248	0.00	29.686 
08:55	20.5	20.5	20.5	78	14.8	1	4	248	0.00	29.686 
09:00	20.5	20.5	20.5	78	14.8	1	7	248	0.00	29.702 
09:05	20.5	20.5	20.5	77	14.5	1	3	248	0.00	29.702 
09:10	20.5	20.5	20.5	77	14.5	1	4	248	0.00	29.702 
09:15	20.6	20.6	20.6	77	14.6	1	3	248	0.00	29.701 
09:20	20.5	20.5	20.5	77	14.5	1	4	248	0.00	29.701 
09:25	20.5	20.5	20.5	77	14.5	1	3	248	0.00	29.701 
09:30	20.5	20.5	20.5	77	14.5	1	3	248	0.00	29.713 
09:35	20.5	20.5	20.5	77	14.5	1	3	248	0.00	29.713 
09:40	20.6	20.6	20.6	77	14.6	1	4	248	0.00	29.713 
09:45	20.8	20.8	20.8	77	14.7	1	4	248	0.00	29.715 
09:50	21.0	21.0	21.0	77	14.9	1	3	248	0.00	29.715 
09:55	21.1	21.1	21.1	77	15.0	1	4	248	0.00	29.715 
10:00	21.1	21.1	21.1	76	14.7	0	2	248	0.00	29.705 
10:05	21.3	21.3	21.3	76	14.9	1	4	248	0.00	29.705 
10:10	21.3	21.3	21.3	75	14.6	1	5	248	0.00	29.705 
10:15	21.4	21.4	21.4	75	14.7	1	4	248	0.00	29.711 
10:20	21.8	21.8	21.8	75	15.1	0	2	248	0.00	29.711 
10:25	22.1	22.1	22.1	75	15.4	0	3	248	0.00	29.711 
10:30	22.4	22.4	22.4	74	15.4	2	4	270	0.00	29.722 
10:35	22.5	22.5	22.5	73	15.2	1	5	248	0.00	29.722 
10:40	23.0	23.0	23.0	73	15.7	1	4	248	0.00	29.722 
10:45	23.2	23.2	23.2	71	15.2	1	5	248	0.00	29.721 
10:50	23.0	23.0	23.0	71	15.0	1	4	248	0.00	29.721 
10:55	23.2	23.2	23.2	71	15.2	1	3	248	0.00	29.721 
11:00	23.6	23.6	23.6	71	15.6	0	2	248	0.00	29.730 
11:05	24.1	24.1	24.1	70	15.8	1	5	248	0.00	29.730 
11:10	23.8	23.8	23.8	69	15.1	2	5	248	0.00	29.730 
11:15	23.6	23.6	23.6	69	14.9	1	4	248	0.00	29.732 
11:20	23.6	23.6	23.6	69	14.9	1	3	248	0.00	29.732 
11:25	23.5	23.5	23.5	69	14.9	1	4	248	0.00	29.732 
11:30	23.3	23.3	23.3	69	14.7	1	4	292	0.00	29.737 
11:35	23.3	23.3	23.3	69	14.7	2	5	270	0.00	29.737 
11:40	23.3	23.3	23.3	69	14.7	2	4	248	0.00	29.737 
11:45	23.2	23.2	23.2	68	14.2	2	4	248	0.00	29.751 
11:50	23.2	23.2	23.2	70	14.9	1	4	270	0.00	29.751 
11:55	23.3	23.3	23.3	69	14.7	1	5	270	0.00	29.751 
12:00	23.2	23.2	23.2	69	14.6	1	4	248	0.00	29.746 
12:05	22.9	22.9	22.9	69	14.3	2	4	248	0.00	29.746 
12:10	22.7	22.7	22.7	70	14.4	1	4	248	0.00	29.746 
12:15	22.9	22.9	22.9	69	14.3	1	3	248	0.00	29.745 
12:20	23.0	23.0	23.0	69	14.4	1	5	248	0.00	29.745 
12:25	23.3	23.3	23.3	70	15.0	0	3	248	0.00	29.745 
12:30	23.3	23.3	23.3	69	14.7	1	3	248	0.00	29.734 
12:35	23.3	23.3	23.3	69	14.7	1	2	248	0.00	29.734 
12:40	23.2	23.2	23.2	69	14.6	1	3	248	0.00	29.734 
12:45	23.3	23.3	23.3	69	14.7	0	3	248	0.00	29.735 
12:50	23.3	23.3	23.3	68	14.3	1	3	248	0.00	29.735 
12:55	23.5	23.5	23.5	69	14.9	1	2	248	0.00	29.735 
13:00	23.6	23.6	23.6	68	14.6	1	3	315	0.00	29.733 
13:05	23.6	23.6	23.6	67	14.3	1	4	248	0.00	29.733 
13:10	23.6	23.6	23.6	67	14.3	1	4	248	0.00	29.733 
13:15	23.5	23.5	23.5	66	13.8	1	4	248	0.00	29.727 
13:20	23.0	23.0	23.0	66	13.4	1	4	270	0.00	29.727 
13:25	23.0	23.0	23.0	67	13.7	1	3	270	0.00	29.727 
13:30	23.3	23.3	23.3	67	14.0	0	3	270	0.00	29.717 
13:35	23.8	23.8	23.8	66	14.1	1	4	248	0.00	29.717 
13:40	23.6	23.6	23.6	65	13.6	2	4	270	0.00	29.717 
13:45	23.5	23.5	23.5	65	13.5	1	3	270	0.00	29.733 
13:50	23.6	23.6	23.6	66	13.9	1	6	248	0.00	29.733 
13:55	23.6	23.6	23.6	65	13.6	1	3	248	0.00	29.733 
14:00	23.6	23.6	23.6	65	13.6	1	3	248	0.00	29.734 
14:05	23.6	23.6	23.6	65	13.6	1	3	270	0.00	29.734 
14:10	23.8	23.8	23.8	65	13.8	1	5	270	0.00	29.734 
14:15	23.5	23.5	23.5	65	13.5	1	4	270	0.00	29.724 
14:20	23.5	23.5	23.5	65	13.5	1	5	270	0.00	29.724 
14:25	23.6	23.6	23.6	66	13.9	0	2	270	0.00	29.724 
14:30	23.8	23.8	23.8	65	13.8	0	2	270	0.00	29.716 
14:35	23.9	23.9	23.9	65	13.9	1	3	270	0.00	29.716 
14:40	23.6	23.6	23.6	65	13.6	1	3	270	0.00	29.716 
14:45	23.6	23.6	23.6	66	13.9	1	3	270	0.00	29.712 
14:50	23.6	23.6	23.6	66	13.9	0	2	270	0.00	29.712 
14:55	23.8	23.8	23.8	65	13.8	1	2	315	0.00	29.712 
15:00	23.8	23.8	23.8	66	14.1	1	2	315	0.00	29.718 
15:05	23.6	23.6	23.6	65	13.6	1	3	292	0.00	29.718 
15:10	23.3	23.3	23.3	66	13.6	1	3	292	0.00	29.718 
15:15	23.3	23.3	23.3	66	13.6	1	2	292	0.00	29.724 
15:20	23.2	23.2	23.2	66	13.6	1	2	292	0.00	29.724 
15:25	23.2	23.2	23.2	66	13.6	0	2	292	0.00	29.724 
15:30	23.2	23.2	23.2	66	13.6	0	2	292	0.00	29.720 
15:35	23.3	23.3	23.3	67	14.0	0	2	292	0.00	29.720 
15:40	23.2	23.2	23.2	66	13.6	0	2	292	0.00	29.720 
15:45	23.2	23.2	23.2	67	13.9	1	3	292	0.00	29.722 
15:50	23.0	23.0	23.0	67	13.7	0	2	292	0.00	29.722 
15:55	23.0	23.0	23.0	67	13.7	0	1	292	0.00	29.722 
16:00	23.2	23.2	23.2	67	13.9	0	2	292	0.00	29.720 
16:05	23.2	23.2	23.2	67	13.9	0	2	292	0.00	29.720 
16:10	23.0	23.0	23.0	66	13.4	0	3	292	0.00	29.720 
16:15	23.0	23.0	23.0	67	13.7	0	2	292	0.00	29.724 
16:20	23.0	23.0	23.0	67	13.7	0	2	292	0.00	29.724 
16:25	22.9	22.9	22.9	67	13.6	0	2	292	0.00	29.724 
16:30	22.9	22.9	22.9	67	13.6	0	1	292	0.00	29.724 
16:35	22.9	22.9	22.9	68	13.9	0	2	292	0.00	29.724 
16:40	22.9	22.9	22.9	68	13.9	0	1	292	0.00	29.724 
16:45	23.0	23.0	23.0	68	14.0	0	1	292	0.00	29.728 
16:50	23.0	23.0	23.0	68	14.0	0	2	292	0.00	29.728 
16:55	23.0	23.0	23.0	67	13.7	0	2	292	0.00	29.728 
17:00	23.2	23.2	23.2	67	13.9	0	3	292	0.00	29.735 
17:05	23.2	23.2	23.2	66	13.6	0	3	292	0.00	29.735 
17:10	23.2	23.2	23.2	66	13.6	0	2	0	0.00	29.735 
17:15	23.2	23.2	23.2	66	13.6	0	1	0	0.00	29.746 
17:20	23.2	23.2	23.2	66	13.6	0	3	0	0.00	29.746 
17:25	23.2	23.2	23.2	66	13.6	0	2	0	0.00	29.746 
17:30	23.0	23.0	23.0	65	13.0	1	4	270	0.00	29.744 
17:35	23.0	23.0	23.0	65	13.0	0	2	270	0.00	29.744 
17:40	23.0	23.0	23.0	66	13.4	0	2	270	0.00	29.744 
17:45	22.9	22.9	22.9	66	13.3	0	3	270	0.00	29.745 
17:50	22.7	22.7	22.7	66	13.1	1	3	270	0.00	29.745 
17:55	22.5	22.5	22.5	66	12.9	0	2	270	0.00	29.745 
18:00	22.5	22.5	22.5	67	13.2	0	1	270	0.00	29.756 
18:05	22.4	22.4	22.4	67	13.1	0	1	270	0.00	29.756 
18:10	22.2	22.2	22.2	67	12.9	0	2	270	0.00	29.756 
18:15	22.1	22.1	22.1	68	13.2	0	3	270	0.00	29.758 
18:20	21.9	21.9	21.9	68	13.0	0	2	270	0.00	29.758 
18:25	21.8	21.8	21.8	68	12.9	0	2	270	0.00	29.758 
18:30	21.8	21.8	21.8	68	12.9	0	2	270	0.00	29.761 
18:35	21.6	21.6	21.6	69	13.0	0	2	270	0.00	29.761 
18:40	21.6	21.6	21.6	69	13.0	0	1	270	0.00	29.761 
18:45	21.6	21.6	21.6	69	13.0	0	1	270	0.00	29.772 
18:50	21.6	21.6	21.6	70	13.4	0	1	270	0.00	29.772 
18:55	21.6	21.6	21.6	70	13.4	0	1	270	0.00	29.772 
19:00	21.6	21.6	21.6	70	13.4	0	1	270	0.00	29.787 
19:05	21.6	21.6	21.6	70	13.4	0	1	270	0.00	29.787 
19:10	21.6	21.6	21.6	70	13.4	0	1	270	0.00	29.787 
19:15	21.6	21.6	21.6	71	13.7	0	2	270	0.00	29.791 
19:20	21.6	21.6	21.6	71	13.7	0	1	270	0.00	29.791 
19:25	21.4	21.4	21.4	71	13.5	0	1	270	0.00	29.791 
19:30	21.4	21.4	21.4	71	13.5	0	2	270	0.00	29.795 
19:35	21.4	21.4	21.4	72	13.8	0	2	270	0.00	29.795 
19:40	21.4	21.4	21.4	72	13.8	0	2	270	0.00	29.795 
19:45	21.4	21.4	21.4	72	13.8	0	1	270	0.00	29.795 
19:50	21.4	21.4	21.4	72	13.8	0	1	270	0.00	29.795 
19:55	21.4	21.4	21.4	72	13.8	0	1	270	0.00	29.795 
20:00	21.4	21.4	21.4	72	13.8	0	2	270	0.00	29.797 
20:05	21.4	21.4	21.4	72	13.8	0	2	270	0.00	29.797 
20:10	21.4	21.4	21.4	72	13.8	0	1	270	0.00	29.797 
20:15	21.4	21.4	21.4	72	13.8	0	2	270	0.00	29.807 
20:20	21.4	21.4	21.4	72	13.8	0	2	270	0.00	29.807 
20:25	21.4	21.4	21.4	72	13.8	0	3	270	0.00	29.807 
20:30	21.4	21.4	21.4	72	13.8	0	1	270	0.00	29.815 
20:35	21.4	21.4	21.4	72	13.8	0	3	270	0.00	29.815 
20:40	21.4	21.4	21.4	72	13.8	0	2	270	0.00	29.815 
20:45	21.4	21.4	21.4	72	13.8	1	4	270	0.00	29.823 
20:50	21.4	21.4	21.4	72	13.8	0	1	270	0.00	29.823 
20:55	21.3	21.3	21.3	72	13.7	0	1	270	0.00	29.823 
21:00	21.3	21.3	21.3	72	13.7	0	2	270	0.00	29.823 
21:05	21.1	21.1	21.1	72	13.5	1	3	270	0.00	29.823 
21:10	21.1	21.1	21.1	73	13.8	1	3	270	0.00	29.823 
21:15	21.1	21.1	21.1	73	13.8	1	4	270	0.00	29.826 
21:20	21.0	21.0	21.0	73	13.7	1	4	270	0.00	29.826 
21:25	20.8	20.8	20.8	73	13.5	1	4	270	0.00	29.826 
21:30	20.6	20.6	20.6	72	13.0	2	7	292	0.00	29.836 
21:35	20.6	20.6	20.6	71	12.7	2	5	292	0.00	29.836 
21:40	20.5	20.5	20.5	71	12.6	1	4	292	0.00	29.836 
21:45	20.3	20.3	20.3	71	12.4	1	3	292	0.00	29.840 
21:50	20.0	20.0	20.0	71	12.1	0	3	292	0.00	29.840 
21:55	19.9	19.9	19.9	72	12.4	1	3	292	0.00	29.840 
22:00	19.7	19.7	19.7	72	12.2	0	2	292	0.00	29.842 
22:05	19.7	19.7	19.7	72	12.2	0	3	292	0.00	29.842 
22:10	19.5	19.5	19.5	73	12.3	1	3	292	0.00	29.842 
22:15	19.4	19.4	19.4	73	12.2	1	3	292	0.00	29.843 
22:20	19.2	19.2	19.2	73	12.0	1	3	292	0.00	29.843 
22:25	19.1	19.1	19.1	73	11.9	1	4	292	0.00	29.843 
22:30	19.1	19.1	19.1	74	12.2	1	4	292	0.00	29.841 
22:35	18.9	18.9	18.9	74	12.0	1	3	292	0.00	29.841 
22:40	18.9	18.9	18.9	75	12.3	1	4	292	0.00	29.841 
22:45	18.8	18.8	18.8	75	12.2	1	4	270	0.00	29.842 
22:50	18.6	18.6	18.6	75	12.0	1	3	270	0.00	29.842 
22:55	18.6	18.6	18.6	76	12.3	1	4	270	0.00	29.842 
23:00	18.6	18.6	18.6	76	12.3	0	2	270	0.00	29.844 
23:05	18.6	18.6	18.6	76	12.3	1	3	270	0.00	29.844 
23:10	18.6	18.6	18.6	77	12.6	1	4	270	0.00	29.844 
23:15	18.8	18.8	18.8	77	12.8	1	3	270	0.00	29.852 
23:20	19.1	19.1	19.1	77	13.1	1	3	270	0.00	29.852 
23:25	19.4	19.4	19.4	77	13.4	1	3	270	0.00	29.852 
23:30	19.7	19.7	19.7	77	13.7	2	5	270	0.00	29.852 
23:35	19.7	19.7	19.7	77	13.7	2	5	270	0.00	29.852 
23:40	19.9	19.9	19.9	77	13.9	2	7	315	0.00	29.852 
23:45	19.7	19.7	19.7	77	13.7	2	5	270	0.00	29.856 
23:50	19.9	19.9	19.9	77	13.9	2	4	315	0.00	29.856 
23:55	19.9	19.9	19.9	77	13.9	1	3	315	0.00	29.856 

CoCoRaHS
IN-AL-39
A2 Web Hosting
Creative Commons License
GoDaddy
search engine by freefind advanced

loaded 2018-11-13 18:13:02 • last modified 2010-11-18 10:43:29
Privacy PolicyDisclaimer
• wx.awcolley.com is powered by PmWiki v.2002016 •
• all content (unless otherwise noted) © 2018 A W Colley